sensor_id;sensor_type;location;lat;lon;timestamp;P1;durP1;ratioP1;P2;durP2;ratioP2
80320;SDS011;69633;47.066;15.450;2023-04-25T00:00:29;6.68;;;3.08;;
80320;SDS011;69633;47.066;15.450;2023-04-25T00:02:54;5.45;;;3.35;;
80320;SDS011;69633;47.066;15.450;2023-04-25T00:05:22;5.45;;;3.30;;
80320;SDS011;69633;47.066;15.450;2023-04-25T00:07:48;5.70;;;3.55;;
80320;SDS011;69633;47.066;15.450;2023-04-25T00:10:14;6.63;;;2.88;;
80320;SDS011;69633;47.066;15.450;2023-04-25T00:12:40;9.43;;;3.10;;
80320;SDS011;69633;47.066;15.450;2023-04-25T00:15:06;7.40;;;4.15;;
80320;SDS011;69633;47.066;15.450;2023-04-25T00:17:32;7.15;;;3.42;;
80320;SDS011;69633;47.066;15.450;2023-04-25T00:19:59;6.50;;;3.10;;
80320;SDS011;69633;47.066;15.450;2023-04-25T00:22:25;5.38;;;3.10;;
80320;SDS011;69633;47.066;15.450;2023-04-25T00:24:51;9.45;;;4.07;;
80320;SDS011;69633;47.066;15.450;2023-04-25T00:27:18;7.68;;;3.40;;
80320;SDS011;69633;47.066;15.450;2023-04-25T00:29:44;6.00;;;3.40;;
80320;SDS011;69633;47.066;15.450;2023-04-25T00:32:09;6.55;;;3.15;;
80320;SDS011;69633;47.066;15.450;2023-04-25T00:34:35;4.50;;;2.80;;
80320;SDS011;69633;47.066;15.450;2023-04-25T00:37:01;6.20;;;3.83;;
80320;SDS011;69633;47.066;15.450;2023-04-25T00:39:27;7.07;;;3.70;;
80320;SDS011;69633;47.066;15.450;2023-04-25T00:41:53;5.05;;;3.35;;
80320;SDS011;69633;47.066;15.450;2023-04-25T00:44:19;5.05;;;3.22;;
80320;SDS011;69633;47.066;15.450;2023-04-25T00:46:46;7.25;;;3.10;;
80320;SDS011;69633;47.066;15.450;2023-04-25T00:49:13;6.78;;;3.05;;
80320;SDS011;69633;47.066;15.450;2023-04-25T00:51:40;5.55;;;3.63;;
80320;SDS011;69633;47.066;15.450;2023-04-25T00:54:06;4.90;;;2.50;;
80320;SDS011;69633;47.066;15.450;2023-04-25T00:56:32;5.30;;;3.38;;
80320;SDS011;69633;47.066;15.450;2023-04-25T00:58:57;6.07;;;3.13;;
80320;SDS011;69633;47.066;15.450;2023-04-25T01:01:23;5.05;;;2.90;;
80320;SDS011;69633;47.066;15.450;2023-04-25T01:03:49;7.93;;;3.40;;
80320;SDS011;69633;47.066;15.450;2023-04-25T01:06:15;5.00;;;3.10;;
80320;SDS011;69633;47.066;15.450;2023-04-25T01:08:41;8.75;;;3.42;;
80320;SDS011;69633;47.066;15.450;2023-04-25T01:11:07;4.78;;;2.80;;
80320;SDS011;69633;47.066;15.450;2023-04-25T01:13:33;7.88;;;3.95;;
80320;SDS011;69633;47.066;15.450;2023-04-25T01:16:00;7.10;;;3.00;;
80320;SDS011;69633;47.066;15.450;2023-04-25T01:18:27;5.72;;;3.25;;
80320;SDS011;69633;47.066;15.450;2023-04-25T01:20:53;5.85;;;3.65;;
80320;SDS011;69633;47.066;15.450;2023-04-25T01:23:20;7.93;;;3.80;;
80320;SDS011;69633;47.066;15.450;2023-04-25T01:25:47;7.75;;;3.47;;
80320;SDS011;69633;47.066;15.450;2023-04-25T01:28:13;7.75;;;3.53;;
80320;SDS011;69633;47.066;15.450;2023-04-25T01:30:39;5.82;;;3.80;;
80320;SDS011;69633;47.066;15.450;2023-04-25T01:33:06;8.88;;;4.10;;
80320;SDS011;69633;47.066;15.450;2023-04-25T01:35:33;7.43;;;3.65;;
80320;SDS011;69633;47.066;15.450;2023-04-25T01:37:59;6.57;;;3.85;;
80320;SDS011;69633;47.066;15.450;2023-04-25T01:40:24;6.60;;;3.22;;
80320;SDS011;69633;47.066;15.450;2023-04-25T01:42:50;5.53;;;3.50;;
80320;SDS011;69633;47.066;15.450;2023-04-25T01:45:16;7.88;;;3.83;;
80320;SDS011;69633;47.066;15.450;2023-04-25T01:47:42;5.30;;;3.13;;
80320;SDS011;69633;47.066;15.450;2023-04-25T01:50:09;4.68;;;3.33;;
80320;SDS011;69633;47.066;15.450;2023-04-25T01:52:36;8.05;;;3.60;;
80320;SDS011;69633;47.066;15.450;2023-04-25T01:55:01;5.38;;;3.03;;
80320;SDS011;69633;47.066;15.450;2023-04-25T01:57:27;5.55;;;3.70;;
80320;SDS011;69633;47.066;15.450;2023-04-25T01:59:55;5.90;;;3.20;;
80320;SDS011;69633;47.066;15.450;2023-04-25T02:02:24;5.65;;;3.78;;
80320;SDS011;69633;47.066;15.450;2023-04-25T02:04:49;4.22;;;2.72;;
80320;SDS011;69633;47.066;15.450;2023-04-25T02:07:14;7.70;;;3.40;;
80320;SDS011;69633;47.066;15.450;2023-04-25T02:09:40;5.13;;;2.63;;
80320;SDS011;69633;47.066;15.450;2023-04-25T02:12:07;4.78;;;2.75;;
80320;SDS011;69633;47.066;15.450;2023-04-25T02:14:33;4.85;;;2.13;;
80320;SDS011;69633;47.066;15.450;2023-04-25T02:16:59;6.50;;;2.65;;
80320;SDS011;69633;47.066;15.450;2023-04-25T02:19:24;6.38;;;2.50;;
80320;SDS011;69633;47.066;15.450;2023-04-25T02:21:50;4.10;;;2.30;;
80320;SDS011;69633;47.066;15.450;2023-04-25T02:24:15;7.25;;;2.80;;
80320;SDS011;69633;47.066;15.450;2023-04-25T02:26:41;4.88;;;2.30;;
80320;SDS011;69633;47.066;15.450;2023-04-25T02:29:06;5.80;;;2.30;;
80320;SDS011;69633;47.066;15.450;2023-04-25T02:31:32;4.45;;;2.38;;
80320;SDS011;69633;47.066;15.450;2023-04-25T02:33:57;6.78;;;2.05;;
80320;SDS011;69633;47.066;15.450;2023-04-25T02:36:23;8.00;;;1.90;;
80320;SDS011;69633;47.066;15.450;2023-04-25T02:38:49;4.55;;;1.90;;
80320;SDS011;69633;47.066;15.450;2023-04-25T02:41:14;3.80;;;1.70;;
80320;SDS011;69633;47.066;15.450;2023-04-25T02:43:40;7.22;;;2.15;;
80320;SDS011;69633;47.066;15.450;2023-04-25T02:46:05;3.80;;;1.65;;
80320;SDS011;69633;47.066;15.450;2023-04-25T02:48:31;5.20;;;1.63;;
80320;SDS011;69633;47.066;15.450;2023-04-25T02:50:56;4.88;;;2.35;;
80320;SDS011;69633;47.066;15.450;2023-04-25T02:53:22;5.28;;;2.45;;
80320;SDS011;69633;47.066;15.450;2023-04-25T02:55:47;6.35;;;2.45;;
80320;SDS011;69633;47.066;15.450;2023-04-25T02:58:12;4.47;;;2.00;;
80320;SDS011;69633;47.066;15.450;2023-04-25T03:00:38;3.67;;;2.30;;
80320;SDS011;69633;47.066;15.450;2023-04-25T03:03:03;4.15;;;2.10;;
80320;SDS011;69633;47.066;15.450;2023-04-25T03:05:29;3.90;;;2.55;;
80320;SDS011;69633;47.066;15.450;2023-04-25T03:07:55;5.07;;;2.42;;
80320;SDS011;69633;47.066;15.450;2023-04-25T03:10:20;3.60;;;2.30;;
80320;SDS011;69633;47.066;15.450;2023-04-25T03:12:45;5.65;;;2.58;;
80320;SDS011;69633;47.066;15.450;2023-04-25T03:15:11;5.60;;;2.42;;
80320;SDS011;69633;47.066;15.450;2023-04-25T03:17:36;6.35;;;2.63;;
80320;SDS011;69633;47.066;15.450;2023-04-25T03:20:02;5.68;;;2.53;;
80320;SDS011;69633;47.066;15.450;2023-04-25T03:22:29;14.48;;;6.28;;
80320;SDS011;69633;47.066;15.450;2023-04-25T03:24:54;25.70;;;7.13;;
80320;SDS011;69633;47.066;15.450;2023-04-25T03:27:19;13.80;;;6.95;;
80320;SDS011;69633;47.066;15.450;2023-04-25T03:29:45;51.28;;;9.48;;
80320;SDS011;69633;47.066;15.450;2023-04-25T03:32:10;49.60;;;9.63;;
80320;SDS011;69633;47.066;15.450;2023-04-25T03:34:36;37.85;;;9.55;;
80320;SDS011;69633;47.066;15.450;2023-04-25T03:37:01;14.25;;;6.72;;
80320;SDS011;69633;47.066;15.450;2023-04-25T03:39:26;15.82;;;5.57;;
80320;SDS011;69633;47.066;15.450;2023-04-25T03:41:52;33.35;;;7.65;;
80320;SDS011;69633;47.066;15.450;2023-04-25T03:44:17;15.00;;;5.85;;
80320;SDS011;69633;47.066;15.450;2023-04-25T03:46:43;5.93;;;2.83;;
80320;SDS011;69633;47.066;15.450;2023-04-25T03:49:08;4.68;;;2.80;;
80320;SDS011;69633;47.066;15.450;2023-04-25T03:51:34;8.55;;;3.00;;
80320;SDS011;69633;47.066;15.450;2023-04-25T03:53:59;3.88;;;2.20;;
80320;SDS011;69633;47.066;15.450;2023-04-25T03:56:25;3.50;;;1.85;;
80320;SDS011;69633;47.066;15.450;2023-04-25T03:58:50;5.60;;;2.03;;
80320;SDS011;69633;47.066;15.450;2023-04-25T04:01:15;6.13;;;1.90;;
80320;SDS011;69633;47.066;15.450;2023-04-25T04:03:41;8.63;;;2.33;;
80320;SDS011;69633;47.066;15.450;2023-04-25T04:06:07;5.55;;;2.00;;
80320;SDS011;69633;47.066;15.450;2023-04-25T04:08:33;7.00;;;1.70;;
80320;SDS011;69633;47.066;15.450;2023-04-25T04:10:59;3.33;;;1.77;;
80320;SDS011;69633;47.066;15.450;2023-04-25T04:13:26;7.22;;;2.20;;
80320;SDS011;69633;47.066;15.450;2023-04-25T04:15:52;5.38;;;2.80;;
80320;SDS011;69633;47.066;15.450;2023-04-25T04:18:17;6.15;;;2.55;;
80320;SDS011;69633;47.066;15.450;2023-04-25T04:20:43;6.25;;;3.22;;
80320;SDS011;69633;47.066;15.450;2023-04-25T04:23:09;6.28;;;2.80;;
80320;SDS011;69633;47.066;15.450;2023-04-25T04:25:35;31.00;;;4.03;;
80320;SDS011;69633;47.066;15.450;2023-04-25T04:28:01;19.50;;;5.25;;
80320;SDS011;69633;47.066;15.450;2023-04-25T04:30:27;8.90;;;3.75;;
80320;SDS011;69633;47.066;15.450;2023-04-25T04:32:56;8.90;;;3.30;;
80320;SDS011;69633;47.066;15.450;2023-04-25T04:35:22;5.80;;;3.15;;
80320;SDS011;69633;47.066;15.450;2023-04-25T04:37:48;17.40;;;4.38;;
80320;SDS011;69633;47.066;15.450;2023-04-25T04:40:14;15.98;;;4.63;;
80320;SDS011;69633;47.066;15.450;2023-04-25T04:42:44;14.23;;;4.20;;
80320;SDS011;69633;47.066;15.450;2023-04-25T04:45:13;9.57;;;3.60;;
80320;SDS011;69633;47.066;15.450;2023-04-25T04:47:39;8.02;;;4.05;;
80320;SDS011;69633;47.066;15.450;2023-04-25T04:50:08;9.35;;;3.90;;
80320;SDS011;69633;47.066;15.450;2023-04-25T04:52:36;10.50;;;4.47;;
80320;SDS011;69633;47.066;15.450;2023-04-25T04:55:02;7.25;;;3.72;;
80320;SDS011;69633;47.066;15.450;2023-04-25T04:57:29;9.35;;;3.78;;
80320;SDS011;69633;47.066;15.450;2023-04-25T04:59:54;6.57;;;3.63;;
80320;SDS011;69633;47.066;15.450;2023-04-25T05:02:20;11.93;;;4.15;;
80320;SDS011;69633;47.066;15.450;2023-04-25T05:04:46;8.27;;;3.67;;
80320;SDS011;69633;47.066;15.450;2023-04-25T05:07:11;7.45;;;4.70;;
80320;SDS011;69633;47.066;15.450;2023-04-25T05:09:37;8.25;;;4.35;;
80320;SDS011;69633;47.066;15.450;2023-04-25T05:12:02;9.70;;;3.88;;
80320;SDS011;69633;47.066;15.450;2023-04-25T05:14:28;8.40;;;4.32;;
80320;SDS011;69633;47.066;15.450;2023-04-25T05:16:54;9.00;;;3.65;;
80320;SDS011;69633;47.066;15.450;2023-04-25T05:19:20;14.65;;;3.97;;
80320;SDS011;69633;47.066;15.450;2023-04-25T05:21:45;6.40;;;2.92;;
80320;SDS011;69633;47.066;15.450;2023-04-25T05:24:11;5.90;;;3.20;;
80320;SDS011;69633;47.066;15.450;2023-04-25T05:26:37;9.88;;;3.47;;
80320;SDS011;69633;47.066;15.450;2023-04-25T05:29:02;7.88;;;3.75;;
80320;SDS011;69633;47.066;15.450;2023-04-25T05:31:28;8.57;;;3.80;;
80320;SDS011;69633;47.066;15.450;2023-04-25T05:33:53;6.88;;;3.28;;
80320;SDS011;69633;47.066;15.450;2023-04-25T05:36:19;7.18;;;3.65;;
80320;SDS011;69633;47.066;15.450;2023-04-25T05:38:45;7.55;;;3.45;;
80320;SDS011;69633;47.066;15.450;2023-04-25T05:41:10;6.57;;;3.40;;
80320;SDS011;69633;47.066;15.450;2023-04-25T05:43:36;9.57;;;3.85;;
80320;SDS011;69633;47.066;15.450;2023-04-25T05:46:02;10.25;;;4.28;;
80320;SDS011;69633;47.066;15.450;2023-04-25T05:48:27;5.70;;;2.92;;
80320;SDS011;69633;47.066;15.450;2023-04-25T05:50:53;10.30;;;3.60;;
80320;SDS011;69633;47.066;15.450;2023-04-25T05:53:19;8.07;;;4.15;;
80320;SDS011;69633;47.066;15.450;2023-04-25T05:55:45;6.40;;;3.22;;
80320;SDS011;69633;47.066;15.450;2023-04-25T05:58:11;5.68;;;3.40;;
80320;SDS011;69633;47.066;15.450;2023-04-25T06:00:36;7.05;;;3.70;;
80320;SDS011;69633;47.066;15.450;2023-04-25T06:03:02;7.85;;;3.88;;
80320;SDS011;69633;47.066;15.450;2023-04-25T06:05:28;7.13;;;3.83;;
80320;SDS011;69633;47.066;15.450;2023-04-25T06:07:53;10.73;;;3.70;;
80320;SDS011;69633;47.066;15.450;2023-04-25T06:10:19;7.22;;;3.72;;
80320;SDS011;69633;47.066;15.450;2023-04-25T06:12:44;11.05;;;5.63;;
80320;SDS011;69633;47.066;15.450;2023-04-25T06:15:10;10.35;;;3.85;;
80320;SDS011;69633;47.066;15.450;2023-04-25T06:17:35;7.35;;;3.40;;
80320;SDS011;69633;47.066;15.450;2023-04-25T06:20:01;9.15;;;3.88;;
80320;SDS011;69633;47.066;15.450;2023-04-25T06:22:28;10.57;;;4.63;;
80320;SDS011;69633;47.066;15.450;2023-04-25T06:24:53;8.80;;;4.88;;
80320;SDS011;69633;47.066;15.450;2023-04-25T06:27:22;12.05;;;5.28;;
80320;SDS011;69633;47.066;15.450;2023-04-25T06:29:47;8.52;;;4.45;;
80320;SDS011;69633;47.066;15.450;2023-04-25T06:32:13;9.95;;;5.25;;
80320;SDS011;69633;47.066;15.450;2023-04-25T06:34:39;9.73;;;5.28;;
80320;SDS011;69633;47.066;15.450;2023-04-25T06:37:04;9.00;;;4.82;;
80320;SDS011;69633;47.066;15.450;2023-04-25T06:39:30;10.35;;;4.95;;
80320;SDS011;69633;47.066;15.450;2023-04-25T06:41:55;11.50;;;5.68;;
80320;SDS011;69633;47.066;15.450;2023-04-25T06:44:21;9.13;;;5.20;;
80320;SDS011;69633;47.066;15.450;2023-04-25T06:46:48;9.70;;;5.55;;
80320;SDS011;69633;47.066;15.450;2023-04-25T06:49:13;7.60;;;4.70;;
80320;SDS011;69633;47.066;15.450;2023-04-25T06:51:40;11.40;;;5.07;;
80320;SDS011;69633;47.066;15.450;2023-04-25T06:54:06;12.68;;;5.18;;
80320;SDS011;69633;47.066;15.450;2023-04-25T06:56:31;7.53;;;4.45;;
80320;SDS011;69633;47.066;15.450;2023-04-25T06:58:57;10.20;;;5.45;;
80320;SDS011;69633;47.066;15.450;2023-04-25T07:01:22;9.45;;;5.72;;
80320;SDS011;69633;47.066;15.450;2023-04-25T07:03:47;8.38;;;5.00;;
80320;SDS011;69633;47.066;15.450;2023-04-25T07:06:13;6.88;;;4.72;;
80320;SDS011;69633;47.066;15.450;2023-04-25T07:08:39;8.93;;;4.47;;
80320;SDS011;69633;47.066;15.450;2023-04-25T07:11:04;9.02;;;4.82;;
80320;SDS011;69633;47.066;15.450;2023-04-25T07:13:30;10.68;;;4.65;;
80320;SDS011;69633;47.066;15.450;2023-04-25T07:15:56;8.18;;;4.47;;
80320;SDS011;69633;47.066;15.450;2023-04-25T07:18:22;12.95;;;4.93;;
80320;SDS011;69633;47.066;15.450;2023-04-25T07:20:47;8.82;;;4.97;;
80320;SDS011;69633;47.066;15.450;2023-04-25T07:23:13;11.07;;;4.20;;
80320;SDS011;69633;47.066;15.450;2023-04-25T07:25:38;8.57;;;3.78;;
80320;SDS011;69633;47.066;15.450;2023-04-25T07:28:04;6.97;;;3.55;;
80320;SDS011;69633;47.066;15.450;2023-04-25T07:30:30;14.05;;;4.20;;
80320;SDS011;69633;47.066;15.450;2023-04-25T07:32:55;5.18;;;3.28;;
80320;SDS011;69633;47.066;15.450;2023-04-25T07:35:21;6.18;;;3.42;;
80320;SDS011;69633;47.066;15.450;2023-04-25T07:37:46;6.88;;;2.83;;
80320;SDS011;69633;47.066;15.450;2023-04-25T07:40:12;5.68;;;2.30;;
80320;SDS011;69633;47.066;15.450;2023-04-25T07:42:37;5.07;;;2.55;;
80320;SDS011;69633;47.066;15.450;2023-04-25T07:45:03;6.18;;;2.70;;
80320;SDS011;69633;47.066;15.450;2023-04-25T07:47:28;7.85;;;3.10;;
80320;SDS011;69633;47.066;15.450;2023-04-25T07:49:54;5.57;;;2.75;;
80320;SDS011;69633;47.066;15.450;2023-04-25T07:52:21;6.15;;;2.25;;
80320;SDS011;69633;47.066;15.450;2023-04-25T07:54:46;2.33;;;1.20;;
80320;SDS011;69633;47.066;15.450;2023-04-25T07:57:13;6.95;;;2.30;;
80320;SDS011;69633;47.066;15.450;2023-04-25T07:59:39;2.08;;;1.00;;
80320;SDS011;69633;47.066;15.450;2023-04-25T08:02:05;2.50;;;1.17;;
80320;SDS011;69633;47.066;15.450;2023-04-25T08:04:30;5.32;;;1.42;;
80320;SDS011;69633;47.066;15.450;2023-04-25T08:06:56;12.35;;;6.05;;
80320;SDS011;69633;47.066;15.450;2023-04-25T08:09:21;7.75;;;2.40;;
80320;SDS011;69633;47.066;15.450;2023-04-25T08:11:47;2.67;;;1.45;;
80320;SDS011;69633;47.066;15.450;2023-04-25T08:14:12;15.43;;;2.30;;
80320;SDS011;69633;47.066;15.450;2023-04-25T08:16:38;5.10;;;1.27;;
80320;SDS011;69633;47.066;15.450;2023-04-25T08:19:04;12.00;;;1.85;;
80320;SDS011;69633;47.066;15.450;2023-04-25T08:21:30;2.90;;;1.40;;
80320;SDS011;69633;47.066;15.450;2023-04-25T08:23:56;5.80;;;1.65;;
80320;SDS011;69633;47.066;15.450;2023-04-25T08:26:23;4.97;;;2.05;;
80320;SDS011;69633;47.066;15.450;2023-04-25T08:28:49;5.30;;;1.40;;
80320;SDS011;69633;47.066;15.450;2023-04-25T08:31:15;3.88;;;1.40;;
80320;SDS011;69633;47.066;15.450;2023-04-25T08:33:41;6.45;;;1.40;;
80320;SDS011;69633;47.066;15.450;2023-04-25T08:36:07;1.65;;;1.00;;
80320;SDS011;69633;47.066;15.450;2023-04-25T08:38:33;3.13;;;1.10;;
80320;SDS011;69633;47.066;15.450;2023-04-25T08:40:59;2.10;;;1.10;;
80320;SDS011;69633;47.066;15.450;2023-04-25T08:43:25;4.72;;;1.05;;
80320;SDS011;69633;47.066;15.450;2023-04-25T08:45:51;2.92;;;1.13;;
80320;SDS011;69633;47.066;15.450;2023-04-25T08:48:21;2.47;;;1.30;;
80320;SDS011;69633;47.066;15.450;2023-04-25T08:50:50;3.83;;;1.13;;
80320;SDS011;69633;47.066;15.450;2023-04-25T08:53:20;3.83;;;1.48;;
80320;SDS011;69633;47.066;15.450;2023-04-25T08:55:47;4.75;;;1.45;;
80320;SDS011;69633;47.066;15.450;2023-04-25T08:58:15;2.17;;;1.00;;
80320;SDS011;69633;47.066;15.450;2023-04-25T09:00:40;2.47;;;1.10;;
80320;SDS011;69633;47.066;15.450;2023-04-25T09:03:06;2.33;;;1.20;;
80320;SDS011;69633;47.066;15.450;2023-04-25T09:05:35;3.92;;;1.30;;
80320;SDS011;69633;47.066;15.450;2023-04-25T09:08:02;3.92;;;1.20;;
80320;SDS011;69633;47.066;15.450;2023-04-25T09:10:27;2.65;;;1.30;;
80320;SDS011;69633;47.066;15.450;2023-04-25T09:13:06;3.00;;;0.98;;
80320;SDS011;69633;47.066;15.450;2023-04-25T09:15:51;3.03;;;1.02;;
80320;SDS011;69633;47.066;15.450;2023-04-25T09:21:11;1.52;;;0.93;;
80320;SDS011;69633;47.066;15.450;2023-04-25T09:23:47;2.78;;;1.05;;
80320;SDS011;69633;47.066;15.450;2023-04-25T09:26:18;3.78;;;1.00;;
80320;SDS011;69633;47.066;15.450;2023-04-25T09:28:44;4.30;;;1.52;;
80320;SDS011;69633;47.066;15.450;2023-04-25T09:31:11;6.30;;;1.58;;
80320;SDS011;69633;47.066;15.450;2023-04-25T09:33:37;5.20;;;1.23;;
80320;SDS011;69633;47.066;15.450;2023-04-25T09:36:03;1.95;;;0.90;;
80320;SDS011;69633;47.066;15.450;2023-04-25T09:41:07;1.15;;;0.80;;
80320;SDS011;69633;47.066;15.450;2023-04-25T09:43:34;2.30;;;1.17;;
80320;SDS011;69633;47.066;15.450;2023-04-25T09:46:00;2.22;;;1.10;;
80320;SDS011;69633;47.066;15.450;2023-04-25T09:48:26;3.88;;;1.20;;
80320;SDS011;69633;47.066;15.450;2023-04-25T09:51:12;2.55;;;1.10;;
80320;SDS011;69633;47.066;15.450;2023-04-25T09:53:42;1.98;;;0.95;;
80320;SDS011;69633;47.066;15.450;2023-04-25T09:58:38;10.77;;;2.97;;
80320;SDS011;69633;47.066;15.450;2023-04-25T10:01:06;2.33;;;1.10;;
80320;SDS011;69633;47.066;15.450;2023-04-25T10:03:33;2.83;;;1.10;;
80320;SDS011;69633;47.066;15.450;2023-04-25T10:06:01;3.60;;;1.15;;
80320;SDS011;69633;47.066;15.450;2023-04-25T10:08:33;4.38;;;1.25;;
80320;SDS011;69633;47.066;15.450;2023-04-25T10:11:01;9.00;;;2.95;;
80320;SDS011;69633;47.066;15.450;2023-04-25T10:13:31;11.68;;;4.18;;
80320;SDS011;69633;47.066;15.450;2023-04-25T10:15:58;3.25;;;1.40;;
80320;SDS011;69633;47.066;15.450;2023-04-25T10:18:25;2.50;;;1.20;;
80320;SDS011;69633;47.066;15.450;2023-04-25T10:20:53;1.75;;;1.00;;
80320;SDS011;69633;47.066;15.450;2023-04-25T10:23:21;2.97;;;1.10;;
80320;SDS011;69633;47.066;15.450;2023-04-25T10:25:48;1.88;;;0.88;;
80320;SDS011;69633;47.066;15.450;2023-04-25T10:28:16;2.33;;;0.90;;
80320;SDS011;69633;47.066;15.450;2023-04-25T10:31:00;2.38;;;1.20;;
80320;SDS011;69633;47.066;15.450;2023-04-25T10:33:34;2.85;;;1.25;;
80320;SDS011;69633;47.066;15.450;2023-04-25T10:36:14;2.45;;;1.00;;
80320;SDS011;69633;47.066;15.450;2023-04-25T10:38:43;2.03;;;1.35;;
80320;SDS011;69633;47.066;15.450;2023-04-25T10:41:10;2.13;;;1.15;;
80320;SDS011;69633;47.066;15.450;2023-04-25T10:43:37;4.53;;;1.23;;
80320;SDS011;69633;47.066;15.450;2023-04-25T10:48:48;2.78;;;1.10;;
80320;SDS011;69633;47.066;15.450;2023-04-25T10:51:17;1.67;;;1.00;;
80320;SDS011;69633;47.066;15.450;2023-04-25T10:53:46;3.03;;;1.00;;
80320;SDS011;69633;47.066;15.450;2023-04-25T10:56:20;2.22;;;1.00;;
80320;SDS011;69633;47.066;15.450;2023-04-25T10:59:11;3.47;;;0.90;;
80320;SDS011;69633;47.066;15.450;2023-04-25T11:04:03;2.42;;;1.20;;
80320;SDS011;69633;47.066;15.450;2023-04-25T11:09:19;2.63;;;1.63;;
80320;SDS011;69633;47.066;15.450;2023-04-25T11:11:55;1.92;;;1.00;;
80320;SDS011;69633;47.066;15.450;2023-04-25T11:14:22;1.13;;;0.93;;
80320;SDS011;69633;47.066;15.450;2023-04-25T11:16:52;1.98;;;1.10;;
80320;SDS011;69633;47.066;15.450;2023-04-25T11:19:22;2.53;;;0.95;;
80320;SDS011;69633;47.066;15.450;2023-04-25T11:21:48;1.65;;;1.00;;
80320;SDS011;69633;47.066;15.450;2023-04-25T11:24:15;1.65;;;0.90;;
80320;SDS011;69633;47.066;15.450;2023-04-25T11:26:42;3.30;;;1.38;;
80320;SDS011;69633;47.066;15.450;2023-04-25T11:29:08;2.88;;;0.80;;
80320;SDS011;69633;47.066;15.450;2023-04-25T11:31:34;1.60;;;0.90;;
80320;SDS011;69633;47.066;15.450;2023-04-25T11:34:00;1.98;;;0.93;;
80320;SDS011;69633;47.066;15.450;2023-04-25T11:36:25;2.17;;;1.17;;
80320;SDS011;69633;47.066;15.450;2023-04-25T11:38:52;1.33;;;0.77;;
80320;SDS011;69633;47.066;15.450;2023-04-25T11:41:21;3.10;;;0.73;;
80320;SDS011;69633;47.066;15.450;2023-04-25T11:43:47;4.25;;;0.90;;
80320;SDS011;69633;47.066;15.450;2023-04-25T11:46:14;1.55;;;0.88;;
80320;SDS011;69633;47.066;15.450;2023-04-25T11:48:41;2.08;;;0.80;;
80320;SDS011;69633;47.066;15.450;2023-04-25T11:51:07;1.92;;;0.90;;
80320;SDS011;69633;47.066;15.450;2023-04-25T11:53:33;3.33;;;0.95;;
80320;SDS011;69633;47.066;15.450;2023-04-25T11:55:58;1.77;;;0.80;;
80320;SDS011;69633;47.066;15.450;2023-04-25T11:58:27;3.58;;;1.15;;
80320;SDS011;69633;47.066;15.450;2023-04-25T12:00:53;3.50;;;1.17;;
80320;SDS011;69633;47.066;15.450;2023-04-25T12:03:19;3.80;;;0.95;;
80320;SDS011;69633;47.066;15.450;2023-04-25T12:05:45;2.30;;;0.80;;
80320;SDS011;69633;47.066;15.450;2023-04-25T12:10:38;4.20;;;0.73;;
80320;SDS011;69633;47.066;15.450;2023-04-25T12:13:18;1.17;;;0.77;;
80320;SDS011;69633;47.066;15.450;2023-04-25T12:15:45;2.50;;;1.00;;
80320;SDS011;69633;47.066;15.450;2023-04-25T12:18:10;2.05;;;1.00;;
80320;SDS011;69633;47.066;15.450;2023-04-25T12:20:36;4.28;;;1.02;;
80320;SDS011;69633;47.066;15.450;2023-04-25T12:23:01;2.83;;;1.35;;
80320;SDS011;69633;47.066;15.450;2023-04-25T12:25:39;1.23;;;0.73;;
80320;SDS011;69633;47.066;15.450;2023-04-25T12:28:09;1.92;;;0.90;;
80320;SDS011;69633;47.066;15.450;2023-04-25T12:30:51;2.05;;;1.00;;
80320;SDS011;69633;47.066;15.450;2023-04-25T12:33:31;3.10;;;0.80;;
80320;SDS011;69633;47.066;15.450;2023-04-25T12:35:58;1.35;;;0.90;;
80320;SDS011;69633;47.066;15.450;2023-04-25T12:38:25;2.17;;;1.10;;
80320;SDS011;69633;47.066;15.450;2023-04-25T12:40:56;1.45;;;0.90;;
80320;SDS011;69633;47.066;15.450;2023-04-25T12:43:25;1.38;;;0.80;;
80320;SDS011;69633;47.066;15.450;2023-04-25T12:45:51;2.40;;;0.90;;
80320;SDS011;69633;47.066;15.450;2023-04-25T12:48:18;1.60;;;1.08;;
80320;SDS011;69633;47.066;15.450;2023-04-25T12:50:44;1.77;;;0.90;;
80320;SDS011;69633;47.066;15.450;2023-04-25T12:53:10;4.60;;;1.10;;
80320;SDS011;69633;47.066;15.450;2023-04-25T12:55:36;1.95;;;0.98;;
80320;SDS011;69633;47.066;15.450;2023-04-25T12:58:02;3.92;;;1.00;;
80320;SDS011;69633;47.066;15.450;2023-04-25T13:00:28;1.55;;;0.80;;
80320;SDS011;69633;47.066;15.450;2023-04-25T13:02:54;2.22;;;0.95;;
80320;SDS011;69633;47.066;15.450;2023-04-25T13:05:20;2.53;;;1.00;;
80320;SDS011;69633;47.066;15.450;2023-04-25T13:07:45;3.15;;;1.20;;
80320;SDS011;69633;47.066;15.450;2023-04-25T13:10:11;3.25;;;0.90;;
80320;SDS011;69633;47.066;15.450;2023-04-25T13:12:36;5.22;;;0.90;;
80320;SDS011;69633;47.066;15.450;2023-04-25T13:15:02;2.10;;;1.30;;
80320;SDS011;69633;47.066;15.450;2023-04-25T13:17:27;4.18;;;1.00;;
80320;SDS011;69633;47.066;15.450;2023-04-25T13:19:53;3.05;;;1.00;;
80320;SDS011;69633;47.066;15.450;2023-04-25T13:22:18;2.55;;;1.05;;
80320;SDS011;69633;47.066;15.450;2023-04-25T13:24:45;4.82;;;1.17;;
80320;SDS011;69633;47.066;15.450;2023-04-25T13:27:11;4.15;;;1.10;;
80320;SDS011;69633;47.066;15.450;2023-04-25T13:29:36;1.92;;;1.30;;
80320;SDS011;69633;47.066;15.450;2023-04-25T13:32:03;1.40;;;0.73;;
80320;SDS011;69633;47.066;15.450;2023-04-25T13:34:28;1.25;;;1.00;;
80320;SDS011;69633;47.066;15.450;2023-04-25T13:36:54;1.55;;;1.10;;
80320;SDS011;69633;47.066;15.450;2023-04-25T13:39:20;5.05;;;1.27;;
80320;SDS011;69633;47.066;15.450;2023-04-25T13:41:45;4.10;;;1.60;;
80320;SDS011;69633;47.066;15.450;2023-04-25T13:44:11;7.93;;;1.40;;
80320;SDS011;69633;47.066;15.450;2023-04-25T13:46:37;9.10;;;1.40;;
80320;SDS011;69633;47.066;15.450;2023-04-25T13:49:03;5.57;;;1.20;;
80320;SDS011;69633;47.066;15.450;2023-04-25T13:51:29;2.70;;;1.02;;
80320;SDS011;69633;47.066;15.450;2023-04-25T13:53:55;4.90;;;1.00;;
80320;SDS011;69633;47.066;15.450;2023-04-25T13:56:21;5.10;;;1.30;;
80320;SDS011;69633;47.066;15.450;2023-04-25T13:58:47;3.65;;;1.23;;
80320;SDS011;69633;47.066;15.450;2023-04-25T14:01:12;3.72;;;0.90;;
80320;SDS011;69633;47.066;15.450;2023-04-25T14:03:38;3.75;;;1.30;;
80320;SDS011;69633;47.066;15.450;2023-04-25T14:06:04;1.33;;;0.80;;
80320;SDS011;69633;47.066;15.450;2023-04-25T14:08:30;1.60;;;1.23;;
80320;SDS011;69633;47.066;15.450;2023-04-25T14:10:55;1.80;;;1.00;;
80320;SDS011;69633;47.066;15.450;2023-04-25T14:13:21;3.58;;;1.40;;
80320;SDS011;69633;47.066;15.450;2023-04-25T14:15:46;4.70;;;1.13;;
80320;SDS011;69633;47.066;15.450;2023-04-25T14:18:12;2.75;;;1.10;;
80320;SDS011;69633;47.066;15.450;2023-04-25T14:20:37;3.67;;;1.33;;
80320;SDS011;69633;47.066;15.450;2023-04-25T14:23:03;2.75;;;1.00;;
80320;SDS011;69633;47.066;15.450;2023-04-25T14:25:29;2.80;;;1.20;;
80320;SDS011;69633;47.066;15.450;2023-04-25T14:27:55;3.97;;;1.10;;
80320;SDS011;69633;47.066;15.450;2023-04-25T14:30:20;5.30;;;1.10;;
80320;SDS011;69633;47.066;15.450;2023-04-25T14:32:47;2.10;;;1.40;;
80320;SDS011;69633;47.066;15.450;2023-04-25T14:35:14;3.35;;;1.35;;
80320;SDS011;69633;47.066;15.450;2023-04-25T14:37:40;1.45;;;0.90;;
80320;SDS011;69633;47.066;15.450;2023-04-25T14:40:06;1.73;;;1.00;;
80320;SDS011;69633;47.066;15.450;2023-04-25T14:42:35;3.22;;;1.10;;
80320;SDS011;69633;47.066;15.450;2023-04-25T14:45:02;1.60;;;0.85;;
80320;SDS011;69633;47.066;15.450;2023-04-25T14:47:28;2.58;;;0.88;;